Terminal Aerodrome Forecast
Issued by NWS Cleveland, OH

Home | Current Version | Previous Version | Graphics & Text | Print | Product List | Glossary On
Versions: 1 2 3 4 5 6 7 8 9 10 11 12 13 14 15 16 17 18 19 20 21 22 23 24 25 26 27 28 29 30 31 32 33 34 35 36 37
201
FTUS41 KCLE 081546 AAF
TAFCLE
TAF AMD
KCLE 081546Z 0816/0918 26008KT 2SM -SN BR OVC008
      TEMPO 0816/0820 1/2SM SN FZFG OVC003
     FM082000 28008KT 3SM -SN BR SCT006 OVC012
     FM090000 26005KT 5SM BR OVC012=

USA.gov is the U.S. government's official web portal to all federal, state and local government web resources and services.